Trimsaran, United Kingdom
Current Conditions -  °F | °C
As of 2:50 AM on Thursday 23 Oct 2014 (Local Time) from EGOP Reporting Station
Broken Clouds Broken Clouds  
Wind Chill: 55°   Ceiling: 3200
Heat Index: 55°   Visibility: 1.3mi
Dew Point: 54°   Wind: 18mph
Humidity: 94%   Direction: 260°W
Pressure: 30.12"   Gusts: NA
Location:  51.72°N, 4.24°W
Report Text: EGOP 230150Z AUTO 26016KT 2200 // SCT010/// SCT023/// BKN032/// 13/12 Q1020
Loading
Personal Weather Stations






























Interactive Weather Map
Tropical Storm Tracking
New forecast layout! Learn more

10-Day Weather Forecast

Advertisements
Track Severe Weather on mobile